Terminal Aerodrome Forecast
Issued by NWS Boston, MA

Home | Current Version | Previous Version | Text Only | Print | Product List | Glossary Off
Versions: 1 2 3 4 5 6 7 8 9 10 11 12 13 14 15 16 17 18 19 20 21
000 FTUS41 KBOX 211750 TAFORH TAF KORH 211750Z 2118/2218 21013G24KT P6SM FEW250 FM220000 29010KT P6SM BKN040 FM220500 33010KT P6SM BKN040 FM221100 01006KT P6SM OVC090 FM221700 02006KT 4SM -RAPL OVC070=

USA.gov is the U.S. government's official web portal to all federal, state and local government web resources and services.